Time;durP1;ratioP1;P1;durP2;ratioP2;P2;SDS_P1;SDS_P2;PMS_P1;PMS_P2;Temp;Humidity;BMP_temperature;BMP_pressure;BME280_temperature;BME280_humidity;BME280_pressure;Samples;Min_cycle;Max_cycle;Signal;HPM_P1;HPM_P2
2022/04/25 00:00:01;;;;;;;10.30;6.40;;;6.70;99.90;;;;;;5035821;28;20466;-50
2022/04/25 00:02:29;;;;;;;7.43;6.03;;;6.60;99.90;;;;;;5036345;28;20486;-50
2022/04/25 00:04:55;;;;;;;9.00;5.80;;;6.70;99.90;;;;;;5030133;28;20494;-51
2022/04/25 00:07:23;;;;;;;6.20;5.20;;;6.70;99.90;;;;;;5041547;28;20523;-51
2022/04/25 00:09:50;;;;;;;8.10;5.13;;;6.70;99.90;;;;;;5031385;28;21018;-51
2022/04/25 00:12:17;;;;;;;9.70;6.43;;;6.80;99.90;;;;;;5043022;28;20827;-51
2022/04/25 00:14:43;;;;;;;10.37;6.73;;;6.70;99.40;;;;;;5037430;28;20515;-50
2022/04/25 00:17:10;;;;;;;8.90;5.87;;;6.80;99.90;;;;;;5031195;28;20454;-50
2022/04/25 00:19:36;;;;;;;10.87;6.60;;;6.70;98.70;;;;;;5032002;28;20459;-50
2022/04/25 00:22:03;;;;;;;7.47;6.13;;;6.80;99.90;;;;;;5033287;28;20535;-50
2022/04/25 00:24:31;;;;;;;9.90;6.33;;;6.80;99.90;;;;;;5044187;28;21183;-50
2022/04/25 00:26:58;;;;;;;8.13;6.50;;;6.80;72.80;;;;;;5040285;28;20462;-51
2022/04/25 00:29:25;;;;;;;10.13;7.23;;;6.80;23.80;;;;;;5027198;28;20528;-50
2022/04/25 00:31:51;;;;;;;12.17;7.20;;;6.80;26.50;;;;;;5035162;28;20890;-50
2022/04/25 00:34:18;;;;;;;9.73;5.53;;;6.90;28.10;;;;;;5045516;28;20447;-51
2022/04/25 00:36:44;;;;;;;11.40;6.50;;;6.90;30.30;;;;;;5031112;28;20458;-51
2022/04/25 00:39:11;;;;;;;8.13;6.50;;;6.90;28.80;;;;;;5032109;28;20485;-50
2022/04/25 00:41:40;;;;;;;10.60;6.70;;;6.90;33.60;;;;;;5031600;28;20894;-51
2022/04/25 00:44:06;;;;;;;7.70;6.20;;;6.90;37.30;;;;;;5033977;28;20485;-50
2022/04/25 00:46:36;;;;;;;9.80;6.67;;;6.90;30.90;;;;;;5027852;28;20459;-50
2022/04/25 00:49:02;;;;;;;9.23;6.20;;;6.90;36.80;;;;;;5028884;28;20479;-50
2022/04/25 00:51:29;;;;;;;8.03;6.20;;;6.90;30.30;;;;;;5038388;28;20817;-50
2022/04/25 00:53:56;;;;;;;10.70;6.43;;;6.90;32.00;;;;;;5033029;28;20454;-50
2022/04/25 00:56:24;;;;;;;10.90;7.53;;;6.90;35.00;;;;;;5028480;28;21028;-50
2022/04/25 00:58:52;;;;;;;6.30;5.70;;;6.90;31.20;;;;;;5045703;28;20552;-51
2022/04/25 01:01:19;;;;;;;13.33;7.00;;;6.90;34.90;;;;;;5037603;28;20469;-50
2022/04/25 01:03:46;;;;;;;8.43;5.70;;;6.80;32.00;;;;;;5042315;28;20540;-50
2022/04/25 01:06:12;;;;;;;9.83;6.93;;;6.90;32.10;;;;;;5034758;28;20482;-50
2022/04/25 01:08:39;;;;;;;11.70;7.93;;;6.90;33.40;;;;;;5024183;28;20994;-51
2022/04/25 01:11:06;;;;;;;12.10;7.10;;;6.80;45.00;;;;;;5028397;28;20553;-50
2022/04/25 01:13:33;;;;;;;9.57;6.40;;;6.80;37.60;;;;;;5033230;28;21019;-51
2022/04/25 01:16:01;;;;;;;9.57;7.00;;;6.90;38.80;;;;;;5035376;28;21224;-49
2022/04/25 01:18:28;;;;;;;9.33;6.97;;;6.80;36.20;;;;;;5037713;28;20482;-50
2022/04/25 01:20:57;;;;;;;12.97;8.53;;;6.80;35.00;;;;;;5036740;28;20475;-51
2022/04/25 01:28:55;;;;;;;9.17;7.00;;;6.70;35.80;;;;;;5037513;28;20479;-51
2022/04/25 01:31:21;;;;;;;9.37;7.67;;;6.70;31.20;;;;;;5028807;28;20517;-50
2022/04/25 01:33:48;;;;;;;12.07;7.57;;;6.70;29.80;;;;;;5030189;28;20512;-50
2022/04/25 01:36:15;;;;;;;14.07;7.73;;;6.70;30.10;;;;;;5038190;28;20509;-50
2022/04/25 01:38:43;;;;;;;12.17;6.73;;;6.60;30.70;;;;;;5030840;28;20489;-50
2022/04/25 01:41:09;;;;;;;10.57;7.03;;;6.60;23.20;;;;;;5029119;28;20965;-51
2022/04/25 01:43:37;;;;;;;12.27;8.13;;;6.60;29.30;;;;;;5026237;28;20529;-50
2022/04/25 01:46:04;;;;;;;12.30;7.20;;;6.60;28.20;;;;;;5026650;28;20882;-50
2022/04/25 01:48:31;;;;;;;11.37;7.30;;;6.50;21.30;;;;;;5040651;28;20509;-51
2022/04/25 01:50:58;;;;;;;16.37;7.83;;;6.60;24.50;;;;;;5031237;28;20463;-51
2022/04/25 01:53:24;;;;;;;10.30;7.50;;;6.50;26.90;;;;;;5038026;28;20469;-50
2022/04/25 01:55:52;;;;;;;15.67;8.90;;;6.50;23.80;;;;;;5040394;28;20466;-50
2022/04/25 01:58:19;;;;;;;15.97;7.57;;;6.50;80.40;;;;;;5036195;28;20486;-51
2022/04/25 02:00:46;;;;;;;15.53;8.33;;;6.40;20.30;;;;;;5029838;28;20459;-51
2022/04/25 02:03:13;;;;;;;11.33;6.83;;;6.40;21.30;;;;;;5028478;28;20494;-50
2022/04/25 02:05:40;;;;;;;7.73;6.90;;;6.40;21.20;;;;;;5033479;28;20459;-51
2022/04/25 02:08:07;;;;;;;12.07;7.53;;;6.40;73.90;;;;;;5032455;28;20478;-50
2022/04/25 02:10:33;;;;;;;8.60;6.50;;;6.30;76.30;;;;;;5032423;28;20517;-50
2022/04/25 02:13:02;;;;;;;8.17;6.30;;;6.30;99.90;;;;;;5035824;28;20453;-51
2022/04/25 02:15:28;;;;;;;12.27;7.83;;;6.30;77.40;;;;;;5037807;28;20469;-50
2022/04/25 02:17:55;;;;;;;10.50;7.80;;;6.30;99.90;;;;;;5035172;28;21155;-51
2022/04/25 02:20:21;;;;;;;9.37;7.67;;;6.20;90.20;;;;;;5042868;28;20455;-51
2022/04/25 02:22:48;;;;;;;14.33;8.10;;;6.30;99.90;;;;;;5039957;28;20524;-50
2022/04/25 02:25:15;;;;;;;13.57;7.47;;;6.20;83.60;;;;;;5041483;28;20495;-50
2022/04/25 02:27:41;;;;;;;13.27;8.40;;;6.20;89.10;;;;;;5036876;28;20522;-51
2022/04/25 02:30:11;;;;;;;9.33;7.87;;;6.20;93.60;;;;;;5034192;28;20519;-50
2022/04/25 02:32:38;;;;;;;7.60;6.80;;;6.20;99.90;;;;;;5036923;28;20450;-50
2022/04/25 02:35:05;;;;;;;13.10;7.13;;;6.20;99.50;;;;;;5043073;28;20454;-50
2022/04/25 02:37:32;;;;;;;7.80;7.00;;;6.10;72.50;;;;;;5035051;28;20486;-50
2022/04/25 02:39:59;;;;;;;9.07;7.00;;;6.10;99.90;;;;;;5033300;28;20458;-51
2022/04/25 02:42:26;;;;;;;11.70;7.23;;;6.10;99.90;;;;;;5036996;28;20481;-50
2022/04/25 02:44:52;;;;;;;8.37;7.43;;;6.10;99.90;;;;;;5035716;28;20896;-50
2022/04/25 02:47:20;;;;;;;11.93;7.70;;;6.10;99.90;;;;;;5030321;28;20978;-50
2022/04/25 02:49:47;;;;;;;12.73;8.07;;;6.10;99.90;;;;;;5041811;28;20880;-50
2022/04/25 02:52:14;;;;;;;11.63;7.60;;;6.10;99.90;;;;;;5030582;28;20514;-50
2022/04/25 02:54:40;;;;;;;12.87;8.20;;;6.00;99.90;;;;;;5032733;28;20465;-50
2022/04/25 02:57:07;;;;;;;8.50;7.50;;;6.00;99.90;;;;;;5041057;28;20503;-50
2022/04/25 02:59:33;;;;;;;7.50;6.60;;;6.00;99.90;;;;;;5084689;22;20554;-53
2022/04/25 03:02:00;;;;;;;11.90;7.40;;;6.00;99.90;;;;;;5074370;28;20529;-52
2022/04/25 03:04:28;;;;;;;10.60;6.70;;;5.90;99.90;;;;;;5083930;28;21079;-53
2022/04/25 03:06:55;;;;;;;8.90;8.00;;;5.90;99.90;;;;;;5069368;28;20517;-53
2022/04/25 03:09:22;;;;;;;24.07;7.97;;;5.90;99.90;;;;;;5063039;28;20526;-54
2022/04/25 03:11:50;;;;;;;10.13;7.20;;;5.90;99.90;;;;;;5068412;28;20472;-54
2022/04/25 03:14:16;;;;;;;8.97;6.60;;;5.90;99.90;;;;;;5068075;28;20457;-53
2022/04/25 03:16:43;;;;;;;9.83;6.47;;;5.80;99.90;;;;;;5070876;28;20988;-53
2022/04/25 03:19:10;;;;;;;10.00;7.37;;;5.80;99.90;;;;;;5067486;28;20481;-52
2022/04/25 03:21:38;;;;;;;17.03;7.60;;;5.80;99.90;;;;;;5068280;28;20536;-54
2022/04/25 03:24:07;;;;;;;9.50;7.50;;;5.80;99.90;;;;;;5065511;28;20507;-62
2022/04/25 03:26:33;;;;;;;10.20;7.60;;;5.80;99.90;;;;;;5064022;28;21235;-54
2022/04/25 03:29:00;;;;;;;8.87;7.40;;;5.80;99.90;;;;;;5065299;28;20558;-53
2022/04/25 03:31:27;;;;;;;11.43;7.77;;;5.90;99.90;;;;;;5067099;28;20493;-53
2022/04/25 03:33:53;;;;;;;9.90;6.60;;;5.80;99.90;;;;;;5066186;28;20460;-54
2022/04/25 03:36:20;;;;;;;9.73;7.00;;;5.80;99.90;;;;;;5065792;28;20530;-53
2022/04/25 03:38:48;;;;;;;10.40;7.70;;;5.80;99.90;;;;;;5065207;28;20538;-56
2022/04/25 03:41:14;;;;;;;9.40;7.00;;;5.80;99.90;;;;;;5069106;28;20516;-53
2022/04/25 03:43:41;;;;;;;9.43;7.20;;;5.80;99.90;;;;;;5064164;28;21061;-53
2022/04/25 03:46:08;;;;;;;8.40;6.90;;;5.80;99.90;;;;;;5066222;28;20546;-54
2022/04/25 03:48:35;;;;;;;12.17;7.97;;;5.80;99.90;;;;;;5064656;28;21030;-53
2022/04/25 03:51:01;;;;;;;14.57;8.30;;;5.70;99.90;;;;;;5077171;28;20511;-52
2022/04/25 03:53:28;;;;;;;13.17;8.30;;;5.80;99.90;;;;;;5056857;28;20458;-54
2022/04/25 03:58:40;;;;;;;12.80;8.57;;;5.80;99.90;;;;;;5074071;28;20858;-52
2022/04/25 04:01:06;;;;;;;14.73;9.80;;;5.90;99.90;;;;;;5062010;28;20456;-56
2022/04/25 04:03:34;;;;;;;12.00;8.00;;;5.90;90.00;;;;;;5065424;28;20496;-52
2022/04/25 04:06:01;;;;;;;10.70;7.97;;;5.90;86.80;;;;;;5061873;28;20848;-53
2022/04/25 04:08:28;;;;;;;8.20;6.67;;;5.90;78.70;;;;;;5063580;28;20476;-54
2022/04/25 04:10:56;;;;;;;10.63;7.50;;;6.00;72.60;;;;;;5065147;28;20467;-53
2022/04/25 04:13:24;;;;;;;9.70;6.60;;;6.00;25.70;;;;;;5067063;28;20971;-54
2022/04/25 04:15:51;;;;;;;8.03;7.10;;;6.10;26.90;;;;;;5068571;28;20816;-54
2022/04/25 04:18:18;;;;;;;9.73;7.27;;;6.10;31.30;;;;;;5069753;28;20468;-53
2022/04/25 04:20:44;;;;;;;12.00;7.00;;;6.10;34.00;;;;;;5061927;28;20487;-54
2022/04/25 04:23:11;;;;;;;7.90;6.47;;;6.10;32.10;;;;;;5064608;28;20522;-53
2022/04/25 04:25:37;;;;;;;7.70;6.80;;;6.20;29.80;;;;;;5065458;28;20521;-54
2022/04/25 04:28:06;;;;;;;8.50;6.13;;;6.20;35.00;;;;;;5066553;28;20473;-53
2022/04/25 04:30:33;;;;;;;8.43;6.40;;;6.20;37.60;;;;;;5064845;28;20457;-53
2022/04/25 04:33:00;;;;;;;9.90;5.60;;;6.20;38.20;;;;;;5064472;28;20468;-54
2022/04/25 04:38:11;;;;;;;12.50;6.30;;;6.30;41.50;;;;;;5062572;28;20455;-53
2022/04/25 04:40:38;;;;;;;8.97;6.07;;;6.30;46.20;;;;;;5067880;28;20842;-53
2022/04/25 04:43:06;;;;;;;8.87;5.10;;;6.40;44.50;;;;;;5070631;28;20477;-52
2022/04/25 04:45:33;;;;;;;8.50;5.47;;;6.40;42.70;;;;;;5067087;28;21283;-52
2022/04/25 04:47:59;;;;;;;10.50;6.00;;;6.40;48.30;;;;;;5063194;28;20472;-54
2022/04/25 04:50:27;;;;;;;8.20;5.57;;;6.40;54.50;;;;;;5065793;28;20466;-52
2022/04/25 04:52:58;;;;;;;6.63;5.50;;;6.40;52.20;;;;;;5062547;28;20469;-54
2022/04/25 04:55:25;;;;;;;6.37;5.77;;;6.50;53.70;;;;;;5055233;28;20518;-53
2022/04/25 04:57:52;;;;;;;6.30;5.67;;;6.50;55.00;;;;;;5062810;28;20522;-55
2022/04/25 05:00:21;;;;;;;9.50;6.30;;;6.60;53.50;;;;;;5064189;28;20499;-53
2022/04/25 05:02:49;;;;;;;7.67;5.30;;;6.60;52.70;;;;;;5059297;28;20457;-54
2022/04/25 05:05:15;;;;;;;8.13;5.17;;;6.70;53.30;;;;;;5063970;28;20984;-53
2022/04/25 05:07:42;;;;;;;8.23;5.67;;;6.70;61.50;;;;;;5066465;28;20961;-53
2022/04/25 05:10:10;;;;;;;8.50;5.57;;;6.60;75.50;;;;;;5057218;28;20461;-54
2022/04/25 05:12:48;;;;;;;5.70;5.20;;;6.70;62.50;;;;;;5060662;28;20468;-52
2022/04/25 05:15:15;;;;;;;6.00;4.67;;;6.70;70.30;;;;;;5060678;28;20452;-53
2022/04/25 05:17:48;;;;;;;6.93;5.40;;;6.70;67.90;;;;;;5059008;28;20913;-53
2022/04/25 05:20:15;;;;;;;6.97;5.27;;;6.70;64.90;;;;;;5058192;28;20453;-52
2022/04/25 05:22:44;;;;;;;7.27;5.80;;;6.70;66.90;;;;;;5059625;28;20453;-52
2022/04/25 05:25:14;;;;;;;12.57;7.60;;;6.70;68.00;;;;;;5058056;28;20474;-53
2022/04/25 05:27:41;;;;;;;9.50;5.57;;;6.70;71.70;;;;;;5059188;28;20453;-53
2022/04/25 05:30:09;;;;;;;9.20;5.77;;;6.80;70.80;;;;;;5061591;28;20465;-52
2022/04/25 05:32:45;;;;;;;7.30;5.13;;;6.80;76.60;;;;;;5061360;28;20461;-54
2022/04/25 05:35:12;;;;;;;15.83;4.73;;;6.80;75.40;;;;;;5073681;28;20822;-52
2022/04/25 05:37:39;;;;;;;5.73;5.17;;;6.70;87.10;;;;;;5062363;28;20461;-53
2022/04/25 05:40:07;;;;;;;8.10;5.33;;;6.80;75.50;;;;;;5068675;28;20822;-53
2022/04/25 05:42:34;;;;;;;5.77;4.97;;;6.90;71.40;;;;;;5067597;28;20960;-54
2022/04/25 05:45:01;;;;;;;9.07;4.50;;;6.90;78.50;;;;;;5073030;28;20911;-52
2022/04/25 05:47:28;;;;;;;5.83;4.63;;;6.90;81.80;;;;;;5069267;28;20460;-53
2022/04/25 05:52:40;;;;;;;7.10;4.97;;;7.00;78.00;;;;;;5069377;28;20451;-54
2022/04/25 05:55:07;;;;;;;9.23;5.87;;;7.00;84.20;;;;;;5072425;28;20522;-51
2022/04/25 05:57:34;;;;;;;5.30;4.77;;;7.00;86.20;;;;;;5067892;28;20479;-54
2022/04/25 06:00:01;;;;;;;7.33;4.67;;;7.00;81.00;;;;;;5073356;28;20821;-54
2022/04/25 06:02:27;;;;;;;5.30;4.57;;;7.10;80.40;;;;;;5068123;28;20468;-54
2022/04/25 06:04:55;;;;;;;5.43;4.60;;;7.10;83.50;;;;;;5070052;28;20522;-53
2022/04/25 06:07:22;;;;;;;5.13;4.73;;;7.20;85.30;;;;;;5072122;28;20526;-53
2022/04/25 06:09:49;;;;;;;10.30;6.07;;;7.10;96.10;;;;;;5070910;28;20476;-54
2022/04/25 06:12:15;;;;;;;6.07;5.20;;;7.20;92.00;;;;;;5063188;28;20515;-54
2022/04/25 06:14:44;;;;;;;6.27;5.30;;;7.20;99.90;;;;;;5070589;28;20464;-56
2022/04/25 06:17:13;;;;;;;9.30;5.40;;;7.20;99.90;;;;;;5065276;28;20465;-53
2022/04/25 06:19:40;;;;;;;7.57;5.50;;;7.00;99.90;;;;;;5061655;28;21019;-53
2022/04/25 06:22:09;;;;;;;7.97;5.00;;;7.20;98.20;;;;;;5066682;28;20594;-54
2022/04/25 06:24:36;;;;;;;7.47;6.17;;;7.10;95.70;;;;;;5069281;28;20567;-53
2022/04/25 06:27:05;;;;;;;4.83;4.30;;;7.20;91.60;;;;;;5070344;28;20461;-53
2022/04/25 06:29:32;;;;;;;4.70;4.30;;;7.20;99.90;;;;;;5083133;28;20469;-55
2022/04/25 06:32:02;;;;;;;8.00;4.80;;;7.10;99.90;;;;;;5069223;28;20499;-54
2022/04/25 06:34:29;;;;;;;8.47;4.43;;;7.20;99.90;;;;;;5065078;28;20493;-52
2022/04/25 06:36:56;;;;;;;10.13;4.67;;;7.20;99.90;;;;;;5072146;28;20452;-54
2022/04/25 06:39:24;;;;;;;7.30;4.47;;;7.20;99.90;;;;;;5066576;28;20940;-54
2022/04/25 06:41:51;;;;;;;11.73;5.80;;;7.20;99.90;;;;;;5067764;28;20457;-54
2022/04/25 06:44:17;;;;;;;8.30;4.80;;;7.20;99.90;;;;;;5064434;28;20516;-53
2022/04/25 06:46:44;;;;;;;5.47;4.27;;;7.30;99.90;;;;;;5068880;28;20510;-54
2022/04/25 06:49:24;;;;;;;5.23;4.30;;;7.30;99.90;;;;;;5075711;28;20479;-57
2022/04/25 06:51:51;;;;;;;5.57;4.20;;;7.20;99.90;;;;;;5066503;28;20464;-53
2022/04/25 06:54:18;;;;;;;9.00;4.53;;;7.30;99.90;;;;;;5060870;28;20540;-54
2022/04/25 06:56:46;;;;;;;11.80;4.70;;;7.30;99.90;;;;;;5072961;28;20946;-54
2022/04/25 06:59:13;;;;;;;7.63;4.50;;;7.40;99.90;;;;;;5064630;28;20477;-53
2022/04/25 07:01:40;;;;;;;6.73;4.50;;;7.50;99.90;;;;;;5059775;28;20871;-54
2022/04/25 07:04:07;;;;;;;6.60;4.90;;;7.60;99.90;;;;;;5064356;28;20524;-53
2022/04/25 07:06:34;;;;;;;27.87;4.53;;;7.60;99.90;;;;;;5058773;28;20453;-53
2022/04/25 07:09:00;;;;;;;11.73;4.60;;;7.60;99.90;;;;;;5058007;28;20473;-54
2022/04/25 07:11:27;;;;;;;5.23;3.90;;;7.40;99.90;;;;;;5064469;28;20462;-54
2022/04/25 07:13:55;;;;;;;4.37;3.83;;;7.60;99.90;;;;;;5061567;28;20449;-52
2022/04/25 07:16:24;;;;;;;7.20;4.60;;;7.50;99.90;;;;;;5068629;28;20457;-54
2022/04/25 07:18:51;;;;;;;9.77;4.37;;;7.60;99.90;;;;;;5066538;28;20492;-54
2022/04/25 07:29:31;;;;;;;7.13;4.70;;;7.80;99.90;;;;;;5077317;28;20486;-54
2022/04/25 07:31:58;;;;;;;5.50;4.37;;;7.90;99.90;;;;;;5067615;28;20472;-54
2022/04/25 07:34:25;;;;;;;13.57;10.13;;;8.00;99.90;;;;;;5057388;28;20446;-54
2022/04/25 07:36:53;;;;;;;6.40;4.90;;;8.00;99.90;;;;;;5080866;28;20460;-53
2022/04/25 07:39:19;;;;;;;6.00;4.70;;;8.00;99.90;;;;;;5082031;28;20461;-53
2022/04/25 07:41:46;;;;;;;9.43;6.17;;;8.00;99.90;;;;;;5072274;28;20452;-54
2022/04/25 07:44:13;;;;;;;5.47;4.97;;;8.10;99.90;;;;;;5073040;28;20477;-54
2022/04/25 07:46:42;;;;;;;9.37;6.33;;;8.10;99.90;;;;;;5072320;28;20453;-54
2022/04/25 07:49:10;;;;;;;7.50;4.90;;;8.20;99.90;;;;;;5072942;28;20575;-54
2022/04/25 07:51:37;;;;;;;12.03;6.23;;;8.30;99.90;;;;;;5067305;28;20519;-53
2022/04/25 07:54:05;;;;;;;7.80;6.70;;;8.40;99.90;;;;;;5084688;28;20437;-52
2022/04/25 07:56:32;;;;;;;8.00;4.63;;;8.50;99.90;;;;;;5073426;28;20536;-52
2022/04/25 07:59:00;;;;;;;6.97;5.07;;;8.30;99.90;;;;;;5072302;28;20480;-52
2022/04/25 08:01:27;;;;;;;7.33;4.20;;;8.40;99.90;;;;;;5076625;28;20473;-53
2022/04/25 08:03:55;;;;;;;6.60;3.80;;;8.50;99.90;;;;;;5091322;28;20444;-52
2022/04/25 08:06:22;;;;;;;19.23;4.83;;;8.60;99.90;;;;;;5088092;28;20460;-54
2022/04/25 08:08:49;;;;;;;8.40;5.20;;;8.70;99.90;;;;;;5078083;28;21039;-53
2022/04/25 08:11:16;;;;;;;12.50;4.50;;;8.80;99.90;;;;;;5071637;28;20453;-53
2022/04/25 08:19:13;;;;;;;8.40;4.07;;;9.10;99.90;;;;;;5073224;28;20820;-54
2022/04/25 08:21:40;;;;;;;7.10;4.90;;;9.00;99.90;;;;;;5079599;28;20462;-52
2022/04/25 08:24:07;;;;;;;7.13;4.53;;;8.90;99.90;;;;;;5083836;28;20476;-54
2022/04/25 08:26:33;;;;;;;11.13;4.70;;;8.70;99.90;;;;;;5083744;28;20482;-52
2022/04/25 08:29:00;;;;;;;9.30;5.80;;;8.80;99.90;;;;;;5071666;28;20477;-53
2022/04/25 08:31:27;;;;;;;5.73;4.60;;;8.70;99.90;;;;;;5071955;28;20449;-53
2022/04/25 08:33:55;;;;;;;5.23;4.27;;;8.70;99.90;;;;;;5074078;28;20465;-52
2022/04/25 08:36:24;;;;;;;5.47;4.20;;;9.00;99.90;;;;;;5076836;28;20449;-54
2022/04/25 08:38:51;;;;;;;9.83;4.80;;;8.90;99.90;;;;;;5071795;28;20461;-52
2022/04/25 08:41:21;;;;;;;19.57;5.10;;;9.10;99.90;;;;;;5071586;28;20480;-55
2022/04/25 08:43:51;;;;;;;8.00;4.30;;;8.90;99.90;;;;;;5069659;28;20441;-52
2022/04/25 08:46:18;;;;;;;9.77;4.30;;;9.10;99.90;;;;;;5069806;28;20954;-52
2022/04/25 08:48:46;;;;;;;8.13;4.57;;;9.20;99.90;;;;;;5078642;28;20568;-52
2022/04/25 08:51:13;;;;;;;15.77;4.00;;;9.40;99.90;;;;;;5084892;28;20943;-53
2022/04/25 08:53:42;;;;;;;4.73;4.23;;;9.40;99.90;;;;;;5084479;28;20533;-52
2022/04/25 08:56:09;;;;;;;3.80;3.50;;;9.80;99.90;;;;;;5067884;28;20499;-52
2022/04/25 08:58:39;;;;;;;9.77;4.87;;;10.20;99.90;;;;;;5072039;22;20503;-53
2022/04/25 09:01:06;;;;;;;6.43;4.47;;;10.60;21.30;;;;;;5099933;28;20941;-53
2022/04/25 09:03:32;;;;;;;4.93;3.97;;;11.20;41.20;;;;;;5099618;28;20912;-52
2022/04/25 09:05:59;;;;;;;4.77;3.63;;;11.40;50.80;;;;;;5091506;28;20476;-53
2022/04/25 09:08:26;;;;;;;4.67;4.27;;;11.50;68.90;;;;;;5091315;28;21060;-52
2022/04/25 09:12:09;;;;;;;4.93;2.97;;;11.60;67.80;;;;;;5088390;28;20514;-52
2022/04/25 09:13:45;;;;;;;6.30;3.70;;;11.90;73.40;;;;;;5091501;28;20898;-53
2022/04/25 09:16:13;;;;;;;4.00;3.70;;;11.60;69.30;;;;;;5097575;28;20459;-53
2022/04/25 09:18:40;;;;;;;3.50;3.23;;;11.20;76.80;;;;;;5101184;28;20484;-53
2022/04/25 09:21:07;;;;;;;12.47;4.30;;;11.20;72.10;;;;;;5096338;28;20494;-53
2022/04/25 09:23:34;;;;;;;23.50;5.17;;;11.40;73.00;;;;;;5112719;28;20439;-53
2022/04/25 09:26:14;;;;;;;5.27;3.73;;;11.70;67.90;;;;;;5116100;28;20475;-52
2022/04/25 09:28:49;;;;;;;12.47;4.83;;;12.20;72.60;;;;;;5115923;28;20524;-52
2022/04/25 09:31:17;;;;;;;7.03;3.70;;;12.00;88.50;;;;;;5084773;28;20880;-52
2022/04/25 09:33:43;;;;;;;14.00;11.17;;;11.50;83.90;;;;;;5085414;28;21155;-52
2022/04/25 09:36:10;;;;;;;16.10;5.00;;;11.70;83.50;;;;;;5107587;28;20496;-53
2022/04/25 09:38:39;;;;;;;4.73;4.33;;;12.00;86.00;;;;;;5084783;28;20468;-54
2022/04/25 09:41:09;;;;;;;6.50;3.63;;;12.20;95.70;;;;;;5085429;28;20465;-53
2022/04/25 09:43:40;;;;;;;7.50;3.63;;;12.40;95.30;;;;;;5108097;28;20512;-53
2022/04/25 09:46:08;;;;;;;6.40;4.27;;;12.90;99.90;;;;;;5088698;28;20487;-54
2022/04/25 09:48:36;;;;;;;5.60;5.10;;;12.80;99.90;;;;;;5099819;28;20500;-54
2022/04/25 09:51:04;;;;;;;8.70;4.90;;;12.50;99.90;;;;;;5094966;28;20447;-53
2022/04/25 09:53:42;;;;;;;5.43;4.37;;;11.90;99.90;;;;;;5092468;28;20444;-53
2022/04/25 09:56:16;;;;;;;28.77;5.07;;;12.10;99.90;;;;;;5074955;28;20437;-53
2022/04/25 09:58:46;;;;;;;6.73;4.33;;;11.90;98.00;;;;;;5074824;28;20526;-53
2022/04/25 10:01:13;;;;;;;8.13;4.70;;;11.60;98.00;;;;;;5074851;28;20486;-53
2022/04/25 10:03:41;;;;;;;3.50;3.17;;;12.30;96.60;;;;;;5101567;28;20440;-54
2022/04/25 10:06:09;;;;;;;3.83;3.20;;;12.60;99.90;;;;;;5093863;28;20995;-53
2022/04/25 10:08:37;;;;;;;3.60;3.30;;;12.80;99.90;;;;;;5074689;28;20469;-52
2022/04/25 10:11:06;;;;;;;7.70;3.60;;;13.10;99.90;;;;;;5087882;28;20833;-52
2022/04/25 10:13:35;;;;;;;7.27;3.40;;;13.00;99.90;;;;;;5095114;28;20454;-52
2022/04/25 10:16:04;;;;;;;3.50;3.27;;;12.90;99.90;;;;;;5097953;28;20451;-52
2022/04/25 10:18:31;;;;;;;5.13;3.63;;;13.10;99.90;;;;;;5097574;28;20463;-53
2022/04/25 10:20:59;;;;;;;5.90;3.37;;;13.30;99.90;;;;;;5124776;28;20447;-57
2022/04/25 10:23:26;;;;;;;3.73;3.43;;;13.20;99.90;;;;;;5127380;28;20435;-53
2022/04/25 10:25:54;;;;;;;13.33;4.03;;;13.40;99.90;;;;;;5098253;28;20491;-53
2022/04/25 10:28:29;;;;;;;4.47;3.33;;;13.60;99.90;;;;;;5077342;28;20459;-53
2022/04/25 10:31:02;;;;;;;3.87;3.57;;;13.60;99.90;;;;;;5101407;28;20463;-52
2022/04/25 10:33:49;;;;;;;3.53;3.13;;;13.30;99.90;;;;;;5110224;28;20446;-52
2022/04/25 10:36:43;;;;;;;7.90;3.37;;;13.00;99.90;;;;;;5074451;28;20418;-53
2022/04/25 10:39:15;;;;;;;3.30;3.00;;;12.90;99.90;;;;;;5075047;28;20479;-53
2022/04/25 10:44:53;;;;;;;4.00;2.80;;;13.10;99.90;;;;;;5088240;28;20508;-53
2022/04/25 10:47:21;;;;;;;6.00;3.30;;;12.80;99.90;;;;;;5096023;28;20454;-53
2022/04/25 10:49:59;;;;;;;4.70;3.30;;;13.10;99.90;;;;;;5088355;28;20906;-52
2022/04/25 10:52:53;;;;;;;5.30;3.00;;;13.30;99.90;;;;;;5073811;28;20498;-52
2022/04/25 10:55:23;;;;;;;7.50;3.80;;;13.40;99.90;;;;;;5073870;28;20490;-53
2022/04/25 10:58:26;;;;;;;9.00;3.90;;;13.10;99.90;;;;;;5077691;28;20547;-53
2022/04/25 11:00:54;;;;;;;3.60;3.33;;;13.00;99.90;;;;;;5105182;28;20451;-53
2022/04/25 11:03:24;;;;;;;10.20;4.67;;;13.10;99.90;;;;;;5090127;27;20444;-52
2022/04/25 11:05:53;;;;;;;12.50;7.80;;;13.30;99.90;;;;;;5077168;28;20477;-54
2022/04/25 11:08:32;;;;;;;7.57;6.80;;;13.40;99.90;;;;;;5073505;28;20448;-53
2022/04/25 11:11:04;;;;;;;7.50;4.40;;;13.30;99.90;;;;;;5085165;28;20855;-53
2022/04/25 11:13:34;;;;;;;6.13;3.73;;;13.70;99.90;;;;;;5094319;28;20552;-53
2022/04/25 11:16:15;;;;;;;3.97;3.50;;;13.90;99.90;;;;;;5092577;28;20465;-53
2022/04/25 11:18:42;;;;;;;5.77;3.70;;;13.80;99.90;;;;;;5091456;27;20827;-53
2022/04/25 11:21:12;;;;;;;3.93;3.63;;;14.00;99.90;;;;;;5091486;28;20516;-53
2022/04/25 11:23:48;;;;;;;12.83;11.23;;;14.10;99.90;;;;;;5081322;28;20564;-53
2022/04/25 11:26:48;;;;;;;7.70;6.03;;;14.10;99.90;;;;;;5091585;28;20487;-52
2022/04/25 11:29:15;;;;;;;4.93;4.50;;;13.90;99.90;;;;;;5101179;28;20530;-52
2022/04/25 11:31:41;;;;;;;6.37;4.80;;;13.80;99.90;;;;;;5113104;28;20439;-52
2022/04/25 11:34:11;;;;;;;8.57;7.80;;;14.10;99.90;;;;;;5113570;28;20499;-53
2022/04/25 11:36:40;;;;;;;4.70;4.30;;;14.00;99.90;;;;;;5090449;28;20456;-52
2022/04/25 11:41:51;;;;;;;7.73;7.03;;;13.80;99.90;;;;;;5102431;28;20435;-53
2022/04/25 11:44:18;;;;;;;6.87;4.33;;;14.10;99.90;;;;;;5095395;28;20448;-52
2022/04/25 11:46:46;;;;;;;5.67;4.90;;;14.10;99.90;;;;;;5091748;28;20476;-51
2022/04/25 11:49:13;;;;;;;9.23;6.83;;;13.50;99.90;;;;;;5092966;28;20471;-52
2022/04/25 11:51:43;;;;;;;6.00;4.90;;;14.10;99.90;;;;;;5092994;28;20529;-52
2022/04/25 11:54:11;;;;;;;4.90;4.03;;;14.40;99.90;;;;;;5084276;28;20466;-51
2022/04/25 11:56:40;;;;;;;6.50;4.10;;;14.30;99.90;;;;;;5086674;28;20479;-52
2022/04/25 11:59:09;;;;;;;8.03;4.47;;;14.20;99.90;;;;;;5110281;28;21029;-52
2022/04/25 12:01:37;;;;;;;12.60;4.60;;;14.00;99.90;;;;;;5080215;28;20526;-52
2022/04/25 12:04:15;;;;;;;6.93;4.63;;;14.60;99.90;;;;;;5097084;28;20460;-52
2022/04/25 12:06:51;;;;;;;4.70;3.93;;;15.30;99.90;;;;;;5082807;28;20981;-53
2022/04/25 12:17:39;;;;;;;12.97;4.33;;;15.90;99.90;;;;;;5090375;28;20455;-53
2022/04/25 12:20:09;;;;;;;4.43;3.83;;;16.10;99.90;;;;;;5076250;28;20483;-53
2022/04/25 12:22:38;;;;;;;5.00;3.90;;;15.70;99.90;;;;;;5083331;28;20460;-52
2022/04/25 12:25:12;;;;;;;5.80;3.80;;;15.80;99.90;;;;;;5085672;28;20480;-52
2022/04/25 12:27:39;;;;;;;6.43;3.30;;;15.90;99.90;;;;;;5093943;28;20461;-52
2022/04/25 12:30:08;;;;;;;8.87;5.00;;;16.10;1.40;;;;;;5098717;28;20540;-52
2022/04/25 12:32:34;;;;;;;11.00;3.80;;;16.50;99.90;;;;;;5092372;28;20880;-52
2022/04/25 12:35:01;;;;;;;9.53;4.07;;;16.40;99.90;;;;;;5093716;28;20465;-52
2022/04/25 12:37:28;;;;;;;7.67;4.30;;;16.30;99.90;;;;;;5084246;28;20456;-52
2022/04/25 12:40:02;;;;;;;5.70;3.77;;;16.50;99.90;;;;;;5095940;28;20923;-52
2022/04/25 12:42:44;;;;;;;5.53;4.00;;;16.60;99.90;;;;;;5100747;28;20453;-53
2022/04/25 12:45:10;;;;;;;4.83;3.50;;;16.40;99.90;;;;;;5091270;28;20464;-52
2022/04/25 12:47:37;;;;;;;5.30;3.53;;;16.70;99.90;;;;;;5086994;28;20464;-53
2022/04/25 12:50:04;;;;;;;6.07;3.70;;;15.70;99.90;;;;;;5092932;28;20997;-52
2022/04/25 12:52:45;;;;;;;5.50;3.47;;;15.90;1.40;;;;;;5092590;28;20463;-54
2022/04/25 12:55:13;;;;;;;8.17;4.10;;;16.60;1.40;;;;;;5086236;28;20497;-52
2022/04/25 12:57:50;;;;;;;8.20;3.57;;;16.40;99.90;;;;;;5098485;28;20465;-52
2022/04/25 13:00:17;;;;;;;30.80;3.87;;;16.60;99.90;;;;;;5103383;28;20471;-52
2022/04/25 13:02:43;;;;;;;3.13;2.93;;;16.70;99.90;;;;;;5092731;28;20464;-52
2022/04/25 13:05:12;;;;;;;9.33;3.67;;;16.80;99.90;;;;;;5086668;28;20515;-52
2022/04/25 13:07:40;;;;;;;9.83;3.97;;;16.70;99.90;;;;;;5094170;28;20545;-52
2022/04/25 13:10:09;;;;;;;4.80;3.10;;;16.30;99.90;;;;;;5082595;28;20476;-52
2022/04/25 13:12:40;;;;;;;14.17;4.47;;;16.30;99.90;;;;;;5072080;28;20468;-53
2022/04/25 13:15:08;;;;;;;3.50;3.00;;;16.00;99.90;;;;;;5065380;28;20480;-52
2022/04/25 13:17:36;;;;;;;5.53;3.93;;;16.10;99.90;;;;;;5071283;28;20461;-53
2022/04/25 13:20:04;;;;;;;3.60;3.30;;;15.80;99.90;;;;;;5075043;28;20515;-52
2022/04/25 13:22:30;;;;;;;3.90;3.60;;;16.00;99.90;;;;;;5076563;28;20460;-52
2022/04/25 13:24:57;;;;;;;3.47;3.20;;;16.10;99.90;;;;;;5095532;28;20513;-52
2022/04/25 13:27:24;;;;;;;5.70;3.57;;;15.70;99.90;;;;;;5081445;28;21024;-53
2022/04/25 13:29:52;;;;;;;8.47;4.47;;;15.80;99.90;;;;;;5095311;28;20463;-53
2022/04/25 13:32:18;;;;;;;6.43;3.50;;;15.80;1.40;;;;;;5074917;28;20467;-53
2022/04/25 13:34:45;;;;;;;5.83;4.13;;;15.80;1.40;;;;;;5071072;28;20460;-52
2022/04/25 13:37:13;;;;;;;5.17;3.70;;;16.10;1.40;;;;;;5073465;28;20530;-52